Time;durP1;ratioP1;P1;durP2;ratioP2;P2;SDS_P1;SDS_P2;PMS_P1;PMS_P2;Temp;Humidity;BMP_temperature;BMP_pressure;BME280_temperature;BME280_humidity;BME280_pressure;Samples;Min_cycle;Max_cycle;Signal;HPM_P1;HPM_P2
2023/04/08 00:00:49;;;;;;;4.03;1.52;;;;;;;19.02;42.13;102159.13;4984015;28;20071;-67
2023/04/08 00:03:14;;;;;;;5.60;2.25;;;;;;;19.02;42.38;102156.47;5000281;28;20033;-67
2023/04/08 00:05:40;;;;;;;5.45;2.10;;;;;;;19.00;42.35;102160.19;4987618;28;20698;-68
2023/04/08 00:08:05;;;;;;;6.70;2.50;;;;;;;18.98;42.22;102157.66;4995834;28;20057;-67
2023/04/08 00:10:31;;;;;;;5.28;2.00;;;;;;;18.97;42.33;102158.59;4985365;28;20041;-68
2023/04/08 00:12:56;;;;;;;5.35;2.08;;;;;;;18.98;42.15;102160.28;4993051;28;20038;-68
2023/04/08 00:15:22;;;;;;;5.50;1.80;;;;;;;18.96;42.09;102151.63;4994601;28;20114;-70
2023/04/08 00:17:47;;;;;;;6.15;2.35;;;;;;;18.95;42.32;102149.91;4983804;28;20039;-68
2023/04/08 00:20:12;;;;;;;5.13;1.97;;;;;;;18.96;42.17;102156.03;4988166;28;20049;-67
2023/04/08 00:22:37;;;;;;;4.93;2.22;;;;;;;18.95;42.20;102151.72;4989849;28;20282;-67
2023/04/08 00:25:05;;;;;;;5.70;2.13;;;;;;;18.92;42.26;102150.09;4987036;28;20426;-68
2023/04/08 00:27:34;;;;;;;5.47;2.22;;;;;;;18.94;42.23;102153.50;4998591;28;20036;-68
2023/04/08 00:30:00;;;;;;;6.00;2.78;;;;;;;18.93;42.17;102150.94;4991378;28;20038;-69
2023/04/08 00:32:26;;;;;;;6.30;2.40;;;;;;;18.95;42.16;102162.28;4989066;28;20034;-68
2023/04/08 00:34:51;;;;;;;5.75;2.35;;;;;;;18.92;42.13;102157.19;4983575;28;20104;-68
2023/04/08 00:37:17;;;;;;;6.00;2.22;;;;;;;18.90;42.27;102151.13;4983038;28;20042;-67
2023/04/08 00:39:42;;;;;;;6.18;2.17;;;;;;;18.92;42.32;102157.19;4985581;28;20073;-68
2023/04/08 00:42:07;;;;;;;5.20;2.13;;;;;;;18.91;42.12;102156.31;4983305;28;20271;-70
2023/04/08 00:44:32;;;;;;;5.30;2.47;;;;;;;18.90;42.34;102159.06;4983510;28;20153;-67
2023/04/08 00:46:58;;;;;;;5.03;2.67;;;;;;;18.88;42.26;102153.88;4988523;28;21210;-67
2023/04/08 00:49:23;;;;;;;7.30;2.38;;;;;;;18.89;42.18;102162.69;4993694;28;20060;-66
2023/04/08 00:51:49;;;;;;;5.93;2.45;;;;;;;18.89;42.06;102167.97;4989679;28;20152;-67
2023/04/08 00:54:14;;;;;;;5.97;2.78;;;;;;;18.88;42.06;102167.09;4987668;28;20030;-68
2023/04/08 00:56:41;;;;;;;5.70;2.80;;;;;;;18.85;42.09;102165.50;4993653;28;20475;-68
2023/04/08 00:59:06;;;;;;;7.88;2.60;;;;;;;18.87;42.20;102169.81;4995238;28;20042;-68
2023/04/08 01:01:56;;;;;;;4.80;2.50;;;;;;;18.85;42.27;102173.44;4965292;28;20026;-68
2023/04/08 01:04:50;;;;;;;6.70;2.72;;;;;;;18.84;42.20;102169.09;4984788;28;20307;-68
2023/04/08 01:07:25;;;;;;;5.97;2.60;;;;;;;18.84;42.16;102169.09;4991003;28;20124;-67
2023/04/08 01:09:54;;;;;;;6.25;2.70;;;;;;;18.81;42.24;102166.59;5001967;28;20108;-68
2023/04/08 01:12:31;;;;;;;7.38;3.08;;;;;;;18.81;42.20;102169.25;5001285;28;20057;-66
2023/04/08 01:15:05;;;;;;;6.47;2.90;;;;;;;18.82;42.23;102170.13;4981742;28;20030;-68
2023/04/08 01:17:32;;;;;;;6.47;3.03;;;;;;;18.79;42.33;102163.22;4997421;28;20061;-68
2023/04/08 01:20:00;;;;;;;7.80;2.95;;;;;;;18.79;42.26;102160.56;4985431;28;20170;-68
2023/04/08 01:22:36;;;;;;;9.75;3.47;;;;;;;18.80;42.21;102172.84;4982061;28;21051;-67
2023/04/08 01:25:07;;;;;;;8.35;3.28;;;;;;;18.77;42.26;102172.16;4995289;28;20037;-67
2023/04/08 01:27:35;;;;;;;8.52;2.90;;;;;;;18.78;42.34;102174.72;4986723;28;20057;-67
2023/04/08 01:30:03;;;;;;;7.55;3.13;;;;;;;18.77;42.30;102170.41;4982194;28;20034;-69
2023/04/08 01:32:30;;;;;;;8.18;3.47;;;;;;;18.75;42.35;102167.00;4989834;28;20471;-70
2023/04/08 01:34:57;;;;;;;7.22;3.20;;;;;;;18.75;42.31;102172.28;4981882;28;20038;-68
2023/04/08 01:37:28;;;;;;;9.52;3.30;;;;;;;18.76;42.28;102184.53;4996921;28;20034;-68
2023/04/08 01:39:54;;;;;;;6.13;3.33;;;;;;;18.75;42.35;102188.13;4982436;28;20104;-67
2023/04/08 01:42:22;;;;;;;8.88;3.22;;;;;;;18.74;42.46;102175.00;4982048;28;20498;-67
2023/04/08 01:44:49;;;;;;;8.57;3.33;;;;;;;18.74;42.25;102175.88;4981978;28;20419;-67
2023/04/08 01:47:15;;;;;;;7.20;3.13;;;;;;;18.73;42.16;102178.63;4981790;28;20040;-66
2023/04/08 01:49:42;;;;;;;8.35;3.53;;;;;;;18.72;42.29;102176.91;4981766;28;20038;-68
2023/04/08 01:52:08;;;;;;;8.80;3.65;;;;;;;18.75;42.28;102180.19;4995438;28;20029;-67
2023/04/08 01:54:34;;;;;;;7.90;3.10;;;;;;;18.74;42.29;102186.44;4982710;28;20141;-66
2023/04/08 01:57:03;;;;;;;7.10;3.25;;;;;;;18.73;42.37;102187.38;4995118;28;20179;-67
2023/04/08 01:59:33;;;;;;;8.02;3.40;;;;;;;18.73;42.40;102187.38;4991015;28;20049;-67
2023/04/08 02:02:01;;;;;;;7.38;3.35;;;;;;;18.71;42.30;102183.13;4981498;28;20094;-67
2023/04/08 02:04:26;;;;;;;10.23;3.78;;;;;;;18.70;42.36;102181.44;4981221;28;21031;-68
2023/04/08 02:06:51;;;;;;;6.13;2.92;;;;;;;18.70;42.35;102182.28;4990261;28;20188;-67
2023/04/08 02:09:17;;;;;;;7.80;3.42;;;;;;;18.69;42.42;102180.56;4989655;28;20030;-67
2023/04/08 02:11:42;;;;;;;9.55;3.30;;;;;;;18.70;42.32;102184.09;5004225;28;20034;-69
2023/04/08 02:14:07;;;;;;;7.47;3.20;;;;;;;18.69;42.28;102180.56;5005431;28;20029;-67
2023/04/08 02:16:41;;;;;;;7.85;3.63;;;;;;;18.66;42.30;102175.50;4995339;28;20146;-67
2023/04/08 02:19:28;;;;;;;7.15;3.20;;;;;;;18.68;42.47;102181.53;4989464;28;20386;-66
2023/04/08 02:22:03;;;;;;;6.07;3.20;;;;;;;18.66;42.37;102181.63;4985797;28;20136;-71
2023/04/08 02:24:31;;;;;;;7.05;3.00;;;;;;;18.64;42.37;102186.16;4985678;28;20036;-67
2023/04/08 02:26:57;;;;;;;6.60;2.60;;;;;;;18.64;42.37;102185.31;4989508;28;20632;-68
2023/04/08 02:29:23;;;;;;;4.90;2.53;;;;;;;18.65;42.42;102189.66;4985481;28;20482;-67
2023/04/08 02:31:50;;;;;;;6.82;2.80;;;;;;;18.65;42.31;102187.84;4993197;28;20034;-67
2023/04/08 02:34:16;;;;;;;5.32;2.70;;;;;;;18.64;42.51;102186.16;4996810;28;20081;-69
2023/04/08 02:36:44;;;;;;;7.65;3.05;;;;;;;18.63;42.61;102189.75;4985608;28;20030;-69
2023/04/08 02:39:10;;;;;;;8.93;2.70;;;;;;;18.64;42.35;102190.59;5002333;28;20034;-68
2023/04/08 02:41:35;;;;;;;5.93;2.70;;;;;;;18.63;42.50;102186.25;5000854;28;20041;-67
2023/04/08 02:44:00;;;;;;;5.72;2.78;;;;;;;18.64;42.57;102194.09;4999527;28;20041;-69
2023/04/08 02:46:26;;;;;;;10.02;3.28;;;;;;;18.64;42.55;102196.72;4989925;28;20104;-69
2023/04/08 02:48:52;;;;;;;8.15;3.03;;;;;;;18.61;42.76;102193.41;4989258;28;20033;-67
2023/04/08 02:51:17;;;;;;;6.30;3.55;;;;;;;18.65;42.59;102197.56;4997247;28;20046;-68
2023/04/08 02:53:43;;;;;;;6.85;2.70;;;;;;;18.62;42.49;102195.13;4998745;28;20038;-67
2023/04/08 02:56:11;;;;;;;6.75;2.88;;;;;;;18.63;42.19;102200.31;4994786;28;20030;-68
2023/04/08 02:58:37;;;;;;;7.10;3.10;;;;;;;18.64;42.51;102203.78;5004513;28;20478;-68
2023/04/08 03:01:02;;;;;;;7.85;2.92;;;;;;;18.61;42.33;102193.41;4995724;28;20038;-68
2023/04/08 03:03:28;;;;;;;7.03;3.30;;;;;;;18.62;42.62;102205.69;4997390;28;20389;-68
2023/04/08 03:05:57;;;;;;;8.23;3.30;;;;;;;18.61;42.39;102203.97;4988026;28;20392;-68
2023/04/08 03:08:22;;;;;;;7.03;3.35;;;;;;;18.61;42.49;102201.34;4987781;28;20034;-69
2023/04/08 03:10:48;;;;;;;6.80;3.25;;;;;;;18.61;42.60;102206.63;4992188;28;20034;-69
2023/04/08 03:13:14;;;;;;;7.75;3.58;;;;;;;18.59;42.34;102201.44;4998876;28;20038;-67
2023/04/08 03:15:40;;;;;;;6.55;2.92;;;;;;;18.60;42.61;102203.13;5003748;28;20116;-70
2023/04/08 03:18:05;;;;;;;6.55;3.05;;;;;;;18.60;42.44;102202.28;4990550;28;20162;-67
2023/04/08 03:20:31;;;;;;;9.00;3.38;;;;;;;18.60;42.46;102207.56;4984353;28;20045;-68
2023/04/08 03:22:56;;;;;;;6.35;3.35;;;;;;;18.60;42.50;102205.78;4987028;28;20118;-68
2023/04/08 03:25:21;;;;;;;5.87;3.17;;;;;;;18.60;42.67;102205.78;4989819;28;20429;-70
2023/04/08 03:27:47;;;;;;;6.97;3.25;;;;;;;18.57;42.45;102203.31;5004161;28;20359;-68
2023/04/08 03:30:12;;;;;;;10.15;3.40;;;;;;;18.60;42.37;102207.56;4998814;28;20534;-69
2023/04/08 03:32:37;;;;;;;7.45;3.33;;;;;;;18.56;42.46;102198.97;5004052;28;20044;-68
2023/04/08 03:35:04;;;;;;;8.27;3.60;;;;;;;18.58;42.56;102206.81;4995088;28;20085;-69
2023/04/08 03:37:29;;;;;;;6.90;3.53;;;;;;;18.55;42.43;102212.25;4985080;28;20128;-67
2023/04/08 03:39:55;;;;;;;7.47;3.38;;;;;;;18.56;42.46;102208.69;4970294;28;20050;-67
2023/04/08 03:42:20;;;;;;;6.85;3.35;;;;;;;18.56;42.59;102211.34;4991484;28;20421;-67
2023/04/08 03:44:45;;;;;;;6.28;3.67;;;;;;;18.55;42.40;102210.50;4991616;28;20062;-68
2023/04/08 03:47:10;;;;;;;8.38;3.75;;;;;;;18.54;42.63;102211.44;4990531;28;20058;-68
2023/04/08 03:49:36;;;;;;;7.00;3.80;;;;;;;18.57;42.58;102207.75;5003267;28;20397;-69
2023/04/08 03:52:01;;;;;;;7.82;3.65;;;;;;;18.53;42.48;102201.81;4998758;28;20038;-67
2023/04/08 03:54:26;;;;;;;8.15;3.90;;;;;;;18.53;42.62;102204.44;4985963;28;20041;-67
2023/04/08 03:56:52;;;;;;;7.60;3.83;;;;;;;18.54;42.63;102216.72;4997171;28;20084;-67
2023/04/08 03:59:17;;;;;;;8.40;3.38;;;;;;;18.52;42.51;102212.44;4989593;28;20030;-67
2023/04/08 04:01:42;;;;;;;7.60;3.50;;;;;;;18.53;42.58;102220.28;4974486;28;20112;-67
2023/04/08 04:04:07;;;;;;;5.63;3.30;;;;;;;18.51;42.77;102213.41;4997720;28;20044;-67
2023/04/08 04:06:33;;;;;;;7.20;3.20;;;;;;;18.51;42.54;102218.69;4989370;28;20116;-66
2023/04/08 04:08:58;;;;;;;7.35;3.40;;;;;;;18.48;42.51;102212.66;4985314;28;20034;-67
2023/04/08 04:11:23;;;;;;;6.38;3.47;;;;;;;18.52;42.62;102213.31;4983882;28;20442;-66
2023/04/08 04:13:49;;;;;;;5.97;3.00;;;;;;;18.48;42.77;102211.81;4987841;28;20034;-69
2023/04/08 04:16:14;;;;;;;7.32;3.70;;;;;;;18.49;42.69;102210.88;4994735;28;20380;-67
2023/04/08 04:18:39;;;;;;;6.47;3.85;;;;;;;18.47;42.86;102210.97;4991927;28;20073;-67
2023/04/08 04:21:06;;;;;;;6.95;3.85;;;;;;;18.51;42.63;102221.34;4986831;28;20546;-66
2023/04/08 04:23:31;;;;;;;9.63;4.30;;;;;;;18.51;42.83;102229.25;4983616;28;20038;-67
2023/04/08 04:25:56;;;;;;;10.75;4.20;;;;;;;18.48;42.56;102227.63;4983336;28;20038;-68
2023/04/08 04:28:22;;;;;;;7.40;3.83;;;;;;;18.51;42.74;102234.53;4983165;28;20415;-69
2023/04/08 04:30:47;;;;;;;7.40;3.63;;;;;;;18.49;42.61;102229.34;4994224;28;20045;-68
2023/04/08 04:33:12;;;;;;;6.90;3.75;;;;;;;18.48;42.77;102231.16;4983038;28;20759;-67
2023/04/08 04:35:39;;;;;;;10.10;4.80;;;;;;;18.50;42.61;102236.34;4993881;28;20031;-69
2023/04/08 04:38:09;;;;;;;9.32;4.15;;;;;;;18.50;42.74;102233.69;4977846;28;20275;-69
2023/04/08 04:40:35;;;;;;;9.40;4.72;;;;;;;18.48;42.81;102238.19;5002727;28;20596;-68
2023/04/08 04:43:00;;;;;;;9.85;4.63;;;;;;;18.47;42.77;102240.00;4990694;28;20038;-68
2023/04/08 04:45:25;;;;;;;9.45;4.85;;;;;;;18.46;42.75;102245.38;4983091;28;20038;-70
2023/04/08 04:47:50;;;;;;;8.55;4.57;;;;;;;18.49;42.70;102245.19;4989613;28;20034;-68
2023/04/08 04:50:16;;;;;;;11.32;4.82;;;;;;;18.46;42.72;102246.22;4986317;28;20490;-69
2023/04/08 04:52:41;;;;;;;8.95;4.28;;;;;;;18.41;42.86;102244.81;4982489;28;20034;-68
2023/04/08 04:55:07;;;;;;;9.05;4.97;;;;;;;18.43;42.85;102248.19;4985927;28;20044;-68
2023/04/08 04:57:32;;;;;;;8.48;4.20;;;;;;;18.39;42.70;102244.03;4995276;28;20108;-68
2023/04/08 04:59:57;;;;;;;8.18;3.80;;;;;;;18.46;42.64;102261.22;4995714;28;20045;-67
2023/04/08 05:02:23;;;;;;;9.30;4.20;;;;;;;18.43;42.63;102258.75;4989218;28;20065;-66
2023/04/08 05:04:48;;;;;;;9.13;4.73;;;;;;;18.44;42.42;102265.75;4996210;28;20069;-68
2023/04/08 05:07:13;;;;;;;9.30;3.90;;;;;;;18.42;42.64;102263.19;4982753;28;20260;-69
2023/04/08 05:09:38;;;;;;;8.10;3.72;;;;;;;18.43;42.81;102264.88;4993962;28;20291;-68
2023/04/08 05:12:04;;;;;;;8.07;3.50;;;;;;;18.42;42.68;102260.56;4983851;28;20475;-66
2023/04/08 05:14:29;;;;;;;7.53;3.45;;;;;;;18.46;42.63;102272.59;4982587;28;20278;-67
2023/04/08 05:16:55;;;;;;;6.50;2.75;;;;;;;18.47;42.68;102262.91;4997377;28;20038;-67
2023/04/08 05:19:20;;;;;;;7.22;2.92;;;;;;;18.51;42.73;102274.13;4982205;28;20030;-69
2023/04/08 05:21:46;;;;;;;9.57;3.17;;;;;;;18.51;42.81;102268.84;4990046;28;20095;-67
2023/04/08 05:24:11;;;;;;;6.53;2.83;;;;;;;18.55;42.58;102275.63;4991686;28;20453;-67
2023/04/08 05:26:36;;;;;;;7.37;3.10;;;;;;;18.58;42.89;102272.81;4988928;28;20034;-67
2023/04/08 05:29:02;;;;;;;7.78;2.90;;;;;;;18.61;42.89;102277.91;4987085;28;20819;-65
2023/04/08 05:31:27;;;;;;;6.78;3.13;;;;;;;18.63;42.69;102278.69;4982068;28;20474;-68
2023/04/08 05:33:52;;;;;;;5.80;2.60;;;;;;;18.64;42.87;102281.22;4988361;28;20430;-66
2023/04/08 05:36:18;;;;;;;6.97;2.70;;;;;;;18.70;42.96;102287.91;4978091;28;20030;-67
2023/04/08 05:38:43;;;;;;;6.15;3.05;;;;;;;18.73;42.95;102279.81;4990354;28;20042;-67
2023/04/08 05:41:09;;;;;;;8.90;2.67;;;;;;;18.76;42.73;102284.06;4982052;28;20551;-68
2023/04/08 05:43:35;;;;;;;7.90;2.50;;;;;;;18.77;42.66;102280.47;4981857;28;20053;-66
2023/04/08 05:46:05;;;;;;;5.47;2.17;;;;;;;18.79;42.74;102282.06;4982018;28;20053;-67
2023/04/08 05:48:31;;;;;;;6.55;2.70;;;;;;;18.83;42.81;102288.88;4982277;28;20027;-67
2023/04/08 05:50:56;;;;;;;6.88;2.38;;;;;;;18.87;42.62;102292.19;5010102;28;20497;-69
2023/04/08 05:53:23;;;;;;;6.83;2.70;;;;;;;18.89;42.61;102294.75;4981864;28;20037;-66
2023/04/08 05:55:48;;;;;;;4.60;2.35;;;;;;;18.88;42.72;102290.41;4981916;28;20279;-66
2023/04/08 05:58:13;;;;;;;8.05;2.78;;;;;;;18.91;42.57;102303.41;4994665;28;20041;-66
2023/04/08 06:00:39;;;;;;;6.03;2.53;;;;;;;18.91;42.73;102300.78;5001214;28;20469;-68
2023/04/08 06:03:04;;;;;;;6.53;2.65;;;;;;;18.93;42.56;102302.41;4997635;28;20471;-70
2023/04/08 06:05:30;;;;;;;5.28;2.30;;;;;;;18.94;42.51;102305.88;4964616;28;20497;-67
2023/04/08 06:07:55;;;;;;;6.68;2.67;;;;;;;18.93;42.41;102306.81;4996760;28;20052;-66
2023/04/08 06:10:20;;;;;;;5.25;2.80;;;;;;;18.96;42.54;102312.78;4987865;28;20041;-68
2023/04/08 06:12:46;;;;;;;5.10;2.08;;;;;;;18.96;42.43;102309.25;4972268;28;20038;-68
2023/04/08 06:15:11;;;;;;;7.93;3.03;;;;;;;18.96;42.50;102310.13;4981728;28;20077;-67
2023/04/08 06:17:37;;;;;;;7.43;2.83;;;;;;;18.94;42.38;102319.09;4990990;28;20029;-69
2023/04/08 06:20:03;;;;;;;6.55;2.92;;;;;;;18.97;42.34;102324.19;4991444;28;20104;-68
2023/04/08 06:22:28;;;;;;;8.27;3.13;;;;;;;18.93;42.38;102320.88;4981360;28;20054;-67
2023/04/08 06:24:54;;;;;;;6.68;3.42;;;;;;;18.94;42.30;102325.22;4985945;28;20037;-66
2023/04/08 06:27:19;;;;;;;6.32;2.90;;;;;;;18.94;42.31;102329.66;4981587;28;20039;-67
2023/04/08 06:29:46;;;;;;;7.43;3.50;;;;;;;18.95;42.34;102331.34;4975781;28;20084;-68
2023/04/08 06:32:11;;;;;;;5.80;3.00;;;;;;;18.92;42.40;102335.03;4985868;28;20026;-69
2023/04/08 06:34:37;;;;;;;7.65;3.30;;;;;;;18.93;42.46;102335.88;5001148;28;20425;-67
2023/04/08 06:37:02;;;;;;;6.55;3.17;;;;;;;18.93;42.35;102344.66;4985888;28;20030;-67
2023/04/08 06:39:28;;;;;;;7.57;3.60;;;;;;;18.94;42.43;102345.50;4991987;28;20102;-66
2023/04/08 06:41:53;;;;;;;7.00;2.97;;;;;;;18.93;42.56;102342.03;4985626;28;20099;-66
2023/04/08 06:44:18;;;;;;;5.60;3.05;;;;;;;18.95;42.57;102349.84;5000709;28;20034;-67
2023/04/08 06:46:44;;;;;;;7.55;2.90;;;;;;;18.95;42.41;102348.06;4985690;28;20044;-66
2023/04/08 06:49:09;;;;;;;7.22;3.13;;;;;;;18.95;42.64;102349.84;4990600;28;20041;-66
2023/04/08 06:51:35;;;;;;;6.38;2.75;;;;;;;18.96;43.23;102357.69;4981554;28;20469;-66
2023/04/08 06:54:00;;;;;;;6.28;2.80;;;;;;;18.95;42.92;102347.22;4993881;28;20157;-66
2023/04/08 06:56:26;;;;;;;6.88;2.63;;;;;;;18.97;43.12;102354.09;4986341;28;20083;-69
2023/04/08 06:58:52;;;;;;;7.88;3.20;;;;;;;18.98;42.76;102357.59;4994531;28;20108;-67
2023/04/08 07:01:17;;;;;;;5.38;2.38;;;;;;;19.01;42.90;102370.63;5004463;28;20092;-69
2023/04/08 07:03:42;;;;;;;6.55;2.72;;;;;;;19.00;42.76;102368.91;5004615;28;20044;-68
2023/04/08 07:06:08;;;;;;;7.40;2.65;;;;;;;18.99;42.96;102362.78;5004592;28;20581;-69
2023/04/08 07:08:33;;;;;;;6.32;2.58;;;;;;;19.00;43.08;102368.91;5000207;28;20387;-67
2023/04/08 07:10:59;;;;;;;5.20;2.50;;;;;;;19.02;43.32;102370.50;4992668;28;20069;-68
2023/04/08 07:13:24;;;;;;;7.97;2.83;;;;;;;19.02;43.30;102374.94;4967070;28;20278;-66
2023/04/08 07:15:50;;;;;;;6.45;2.80;;;;;;;19.00;43.34;102371.56;4999811;28;20038;-69
2023/04/08 07:18:15;;;;;;;6.70;2.80;;;;;;;19.03;43.70;102374.00;4986417;28;20038;-67
2023/04/08 07:20:41;;;;;;;7.32;2.92;;;;;;;19.03;43.54;102390.69;4997392;28;20505;-68
2023/04/08 07:23:06;;;;;;;6.45;3.13;;;;;;;19.02;43.53;102385.50;4984574;28;20073;-68
2023/04/08 07:25:33;;;;;;;6.45;2.75;;;;;;;19.05;43.54;102392.41;4984893;28;20038;-69
2023/04/08 07:27:59;;;;;;;5.43;2.78;;;;;;;19.04;43.57;102388.91;4972982;28;20391;-69
2023/04/08 07:30:24;;;;;;;5.97;3.00;;;;;;;19.13;43.43;102398.91;4988457;28;20038;-66
2023/04/08 07:32:49;;;;;;;6.18;3.15;;;;;;;19.15;43.38;102398.81;5003162;28;20030;-67
2023/04/08 07:35:22;;;;;;;7.28;3.00;;;;;;;19.14;43.34;102395.34;4995531;28;20037;-67
2023/04/08 07:37:48;;;;;;;5.63;2.72;;;;;;;19.17;43.30;102397.78;4985820;28;20122;-66
2023/04/08 07:40:13;;;;;;;7.82;3.50;;;;;;;19.18;43.17;102402.16;4989146;28;20139;-67
2023/04/08 07:42:39;;;;;;;7.03;2.80;;;;;;;19.20;43.36;102402.91;4986460;28;20046;-69
2023/04/08 07:45:04;;;;;;;5.45;3.35;;;;;;;19.20;43.27;102407.31;4967720;28;20046;-67
2023/04/08 07:47:29;;;;;;;5.85;2.90;;;;;;;19.20;43.26;102404.66;4997056;28;20038;-66
2023/04/08 07:49:55;;;;;;;6.25;2.45;;;;;;;19.20;43.26;102404.66;5001841;28;20084;-67
2023/04/08 07:52:20;;;;;;;7.20;3.00;;;;;;;19.20;43.25;102405.53;4995697;28;20038;-67
2023/04/08 07:54:46;;;;;;;5.40;2.50;;;;;;;19.19;43.19;102406.47;4985763;28;20838;-67
2023/04/08 07:57:11;;;;;;;7.22;2.90;;;;;;;19.17;43.05;102399.59;4985901;28;20314;-67
2023/04/08 07:59:36;;;;;;;5.40;2.63;;;;;;;19.15;43.07;102407.63;4985380;28;20042;-67
2023/04/08 08:02:02;;;;;;;4.60;2.43;;;;;;;19.15;42.87;102406.75;5003260;28;20785;-67
2023/04/08 08:04:27;;;;;;;5.93;2.40;;;;;;;19.16;42.98;102421.66;5003497;28;20263;-67
2023/04/08 08:06:52;;;;;;;6.10;2.63;;;;;;;19.14;43.19;102421.75;5003204;28;20034;-67
2023/04/08 08:09:17;;;;;;;6.40;2.78;;;;;;;19.13;42.89;102421.84;4982229;28;20026;-66
2023/04/08 08:11:43;;;;;;;5.85;2.97;;;;;;;19.12;43.02;102420.16;4983743;28;20026;-67
2023/04/08 08:14:10;;;;;;;5.38;3.10;;;;;;;19.13;42.86;102427.16;4996177;28;20539;-67
2023/04/08 08:16:37;;;;;;;6.10;2.53;;;;;;;19.15;43.13;102435.81;4996056;28;20121;-67
2023/04/08 08:19:04;;;;;;;5.93;2.72;;;;;;;19.12;43.14;102436.00;4983378;28;20070;-69
2023/04/08 08:21:30;;;;;;;5.80;2.90;;;;;;;19.12;42.92;102431.59;4984204;28;20132;-66
2023/04/08 08:23:55;;;;;;;5.95;2.85;;;;;;;19.11;42.88;102435.16;4991019;28;20065;-67
2023/04/08 08:26:21;;;;;;;8.57;2.83;;;;;;;19.10;42.80;102430.81;4989635;28;20116;-66
2023/04/08 08:28:46;;;;;;;5.50;2.55;;;;;;;19.11;42.61;102442.25;4997771;28;20489;-68
2023/04/08 08:31:11;;;;;;;5.67;2.60;;;;;;;19.10;42.66;102440.53;4993643;28;20037;-65
2023/04/08 08:33:38;;;;;;;5.57;2.70;;;;;;;19.09;42.76;102438.81;4996054;28;20296;-69
2023/04/08 08:36:04;;;;;;;5.53;2.72;;;;;;;19.10;42.80;102440.53;4983148;28;20534;-67
2023/04/08 08:38:30;;;;;;;5.78;2.83;;;;;;;19.07;42.68;102452.13;4987734;28;20039;-69
2023/04/08 08:40:57;;;;;;;5.45;2.70;;;;;;;19.08;42.78;102445.06;5000906;28;20497;-69
2023/04/08 08:43:23;;;;;;;5.45;2.50;;;;;;;19.07;42.89;102452.13;4997539;28;20030;-68
2023/04/08 08:45:48;;;;;;;5.72;2.50;;;;;;;19.07;42.56;102449.50;4997606;28;20123;-70
2023/04/08 08:48:14;;;;;;;4.90;2.90;;;;;;;19.07;42.66;102451.28;5002369;28;20069;-69
2023/04/08 08:50:39;;;;;;;5.63;2.60;;;;;;;19.07;42.79;102456.56;4985988;28;20141;-68
2023/04/08 08:53:04;;;;;;;4.97;2.75;;;;;;;19.09;42.70;102449.41;4990853;28;20042;-65
2023/04/08 08:55:32;;;;;;;5.25;2.80;;;;;;;19.09;42.55;102452.91;5002637;28;20030;-66
2023/04/08 08:57:59;;;;;;;4.38;2.53;;;;;;;19.07;42.76;102460.06;4997296;28;20033;-66
2023/04/08 09:00:31;;;;;;;5.30;2.80;;;;;;;19.05;42.58;102456.66;4997170;28;20049;-67
2023/04/08 09:03:14;;;;;;;3.88;2.25;;;;;;;19.06;42.72;102462.78;5001280;28;20605;-68
2023/04/08 09:05:50;;;;;;;5.22;2.70;;;;;;;19.09;42.68;102465.25;5001975;28;20723;-66
2023/04/08 09:08:34;;;;;;;5.03;2.70;;;;;;;19.04;42.87;102457.59;4984926;28;20399;-66
2023/04/08 09:11:13;;;;;;;5.35;2.40;;;;;;;19.06;42.61;102466.31;5000374;28;20041;-66
2023/04/08 09:13:39;;;;;;;4.70;2.67;;;;;;;19.08;42.50;102469.69;5001971;28;20092;-69
2023/04/08 09:16:07;;;;;;;4.60;2.60;;;;;;;19.09;42.64;102476.69;4993239;28;20609;-66
2023/04/08 09:18:33;;;;;;;6.97;2.75;;;;;;;19.09;42.56;102471.41;4993116;28;20057;-65
2023/04/08 09:21:00;;;;;;;4.35;2.60;;;;;;;19.17;42.53;102478.88;4985872;28;20034;-67
2023/04/08 09:23:39;;;;;;;4.70;2.80;;;;;;;19.18;42.42;102477.91;5001075;28;20042;-66
2023/04/08 09:26:13;;;;;;;5.63;3.13;;;;;;;19.23;42.48;102481.13;4971561;28;20058;-65
2023/04/08 09:28:39;;;;;;;4.93;2.60;;;;;;;19.17;42.58;102482.38;4991112;28;20541;-67
2023/04/08 09:31:22;;;;;;;7.30;2.70;;;;;;;19.15;42.67;102486.03;4987653;28;20501;-68
2023/04/08 09:33:50;;;;;;;4.57;2.65;;;;;;;19.15;42.45;102484.25;4996732;28;20038;-66
2023/04/08 09:36:16;;;;;;;4.80;2.50;;;;;;;19.15;42.65;102480.75;4994038;28;20397;-68
2023/04/08 09:38:42;;;;;;;5.38;2.67;;;;;;;19.15;42.65;102488.66;4987464;28;20030;-67
2023/04/08 09:41:07;;;;;;;5.40;3.30;;;;;;;19.13;42.73;102480.00;4992811;28;20045;-66
2023/04/08 09:43:42;;;;;;;5.20;2.75;;;;;;;19.15;43.13;102486.91;4994451;28;20049;-67
2023/04/08 09:46:10;;;;;;;;;;;;;;;19.19;42.98;102491.03;4986122;28;20088;-67
2023/04/08 09:48:41;;;;;;;4.55;2.53;;;;;;;19.21;42.81;102490.94;4989558;28;19959;-65
2023/04/08 09:51:07;;;;;;;4.65;2.30;;;;;;;19.19;42.99;102493.69;4996237;28;20069;-67
2023/04/08 09:53:40;;;;;;;5.68;2.63;;;;;;;19.16;42.98;102493.03;4974676;28;20034;-66
2023/04/08 09:56:10;;;;;;;5.63;2.33;;;;;;;19.17;43.13;102500.03;4998366;28;20044;-67
2023/04/08 09:58:53;;;;;;;6.55;3.30;;;;;;;19.17;43.14;102498.22;4991858;28;20394;-67
2023/04/08 10:01:27;;;;;;;4.72;2.60;;;;;;;19.17;42.98;102498.22;4981160;28;20038;-68
2023/04/08 10:03:56;;;;;;;4.90;2.53;;;;;;;19.19;42.97;102492.84;4986509;28;20035;-68
2023/04/08 10:06:26;;;;;;;5.32;2.90;;;;;;;19.17;42.90;102487.66;4984000;28;20046;-68
2023/04/08 10:08:52;;;;;;;4.80;2.85;;;;;;;19.17;43.07;102495.59;4986321;28;20034;-66
2023/04/08 10:11:17;;;;;;;6.68;3.13;;;;;;;19.24;43.16;102497.84;4990521;28;20022;-68
2023/04/08 10:13:43;;;;;;;6.32;3.00;;;;;;;19.31;43.02;102496.53;4975377;28;20129;-68
2023/04/08 10:16:26;;;;;;;5.72;2.70;;;;;;;19.37;43.03;102502.28;4991759;28;20650;-69
2023/04/08 10:18:55;;;;;;;5.53;2.85;;;;;;;19.40;42.64;102499.47;4993986;28;20556;-71
2023/04/08 10:21:46;;;;;;;5.32;2.53;;;;;;;19.39;43.06;102505.72;4993088;28;20050;-71
2023/04/08 10:24:12;;;;;;;6.55;2.70;;;;;;;19.43;42.78;102506.38;4992718;28;20138;-68
2023/04/08 10:26:41;;;;;;;5.35;2.90;;;;;;;19.39;43.06;102504.84;4994867;28;20152;-69
2023/04/08 10:29:20;;;;;;;6.35;3.10;;;;;;;19.39;43.26;102500.44;4991730;28;20113;-68
2023/04/08 10:31:50;;;;;;;7.80;2.85;;;;;;;19.40;42.97;102501.28;4992209;28;20116;-67
2023/04/08 10:34:16;;;;;;;6.03;2.55;;;;;;;19.33;43.11;102490.22;4986326;28;20033;-69
2023/04/08 10:36:43;;;;;;;6.07;2.80;;;;;;;19.34;43.10;102485.78;4986870;28;20065;-67
2023/04/08 10:39:08;;;;;;;5.80;2.70;;;;;;;19.40;42.93;102495.97;4999653;28;20034;-67
2023/04/08 10:41:33;;;;;;;5.28;2.60;;;;;;;19.39;43.11;102484.56;5000304;28;20100;-68
2023/04/08 10:44:02;;;;;;;4.50;2.35;;;;;;;19.35;42.95;102483.03;4996272;28;20066;-67
2023/04/08 10:46:27;;;;;;;5.43;2.78;;;;;;;19.44;42.91;102496.63;4997411;28;20046;-67
2023/04/08 10:49:02;;;;;;;4.73;2.40;;;;;;;19.42;42.74;102495.88;4985117;28;20061;-68
2023/04/08 10:51:31;;;;;;;4.32;2.40;;;;;;;19.45;42.97;102495.69;4994852;28;20299;-68
2023/04/08 10:54:08;;;;;;;4.45;2.47;;;;;;;19.44;42.97;102489.56;4996088;28;20076;-70
2023/04/08 10:56:34;;;;;;;4.53;2.65;;;;;;;19.44;43.09;102486.94;4996124;28;20089;-70
2023/04/08 10:59:00;;;;;;;6.60;3.05;;;;;;;19.51;42.95;102476.81;4990199;28;20081;-71
2023/04/08 11:01:26;;;;;;;7.95;4.10;;;;;;;19.55;42.89;102480.97;4983953;28;20038;-70
2023/04/08 11:03:52;;;;;;;5.78;2.78;;;;;;;19.53;43.44;102481.06;4984703;28;20478;-69
2023/04/08 11:06:18;;;;;;;5.72;3.25;;;;;;;19.47;43.09;102477.94;4984285;28;20043;-70
2023/04/08 11:08:43;;;;;;;8.52;3.58;;;;;;;19.45;43.44;102480.69;4995826;28;20033;-68
2023/04/08 11:11:10;;;;;;;5.32;3.25;;;;;;;19.45;43.39;102482.47;4997813;28;20038;-70
2023/04/08 11:13:37;;;;;;;4.68;2.70;;;;;;;19.45;43.52;102482.47;4984899;28;20049;-69
2023/04/08 11:16:04;;;;;;;5.55;3.28;;;;;;;19.44;43.52;102473.72;4994322;28;20532;-69
2023/04/08 11:18:31;;;;;;;7.55;3.60;;;;;;;19.46;43.30;102471.81;4989473;28;20054;-69
2023/04/08 11:20:57;;;;;;;6.70;3.22;;;;;;;19.44;43.50;102468.44;5000748;28;20052;-69
2023/04/08 11:23:24;;;;;;;5.20;3.20;;;;;;;19.46;43.53;102465.69;4984350;28;20121;-69